This is the latest recevied weather packets stored in our database for station/object KA1BMF-13. If no packets are shown the sender has not sent any weather packets the latest 10 day(s).
| Time | Temp. | Humidity | Pressure | Rain* | Wind** | Luminosity | Snow |
|---|---|---|---|---|---|---|---|
| 1777574717 | 11.67° C | 88% | 1006.3 hPa | 0 mm | - | 249 W/m² | - |
| 1777574132 | 11.67° C | 86% | 1006.4 hPa | 0 mm | - | 164 W/m² | - |
| 1777571718 | 11.67° C | 89% | 1006.4 hPa | 0 mm | - | 107 W/m² | - |
| 1777570519 | 11.67° C | 91% | 1006.2 hPa | 0 mm | - | 186 W/m² | - |
| 1777568739 | 10.56° C | 93% | 1006.3 hPa | 0 mm | - | 174 W/m² | - |
| 1777566919 | 10.56° C | 96% | 1006.7 hPa | 0 mm | - | 213 W/m² | - |
| 1777565754 | 10° C | 97% | 1007 hPa | 0 mm | - | 205 W/m² | - |
| 1777565120 | 10° C | 97% | 1007.4 hPa | 0 mm | - | 329 W/m² | - |
| 1777557322 | 9.44° C | 97% | 1007.3 hPa | 0 mm | - | 61 W/m² | - |
| 1777556722 | 9.44° C | 97% | 1007.3 hPa | 0 mm | - | 67 W/m² | - |
| 1777556123 | 9.44° C | 97% | 1007.4 hPa | 0 mm | - | 72 W/m² | - |
| 1777554923 | 9.44° C | 97% | 1007.4 hPa | 0 mm | - | 39 W/m² | - |
| 1777553723 | 8.89° C | 97% | 1007.4 hPa | 0 mm | - | 78 W/m² | - |
| 1777545326 | 8.89° C | 96% | 1007.5 hPa | 0 mm | - | 8 W/m² | - |
| 1777542347 | 8.89° C | 96% | 1007.5 hPa | 0 mm | - | 0 W/m² | - |
| 1777535718 | 8.89° C | 95% | 1008.1 hPa | 0 mm | - | 0 W/m² | - |
| 1777526118 | 8.89° C | 93% | 1009.5 hPa | 4.32 mm | - | 0 W/m² | - |
| 1777525518 | 8.89° C | 92% | 1009.8 hPa | 3.81 mm | - | 0 W/m² | - |
| 1777524319 | 9.44° C | 92% | 1010.2 hPa | 3.3 mm | - | 0 W/m² | - |
| 1777523718 | 9.44° C | 91% | 1010.4 hPa | 3.3 mm | - | 0 W/m² | - |
| 1777519520 | 10° C | 85% | 1010.5 hPa | 0.76 mm | - | 0 W/m² | - |
| 1777517117 | 10.56° C | 83% | 1010.8 hPa | 0 mm | - | 0 W/m² | - |
| 1777514118 | 11.11° C | 79% | 1011.3 hPa | 0 mm | - | 0 W/m² | - |
| 1777508117 | 11.67° C | 75% | 1010.6 hPa | 0 mm | - | 0 W/m² | - |
| 1777506917 | 12.22° C | 73% | 1010.5 hPa | 0 mm | - | 1 W/m² | - |
* Rain latest hour (hover to see other rain measurements)
** Current wind speed in m/s (hover to see current wind gust speed)